createdAt,value
2023-05-03T00:01:26.322Z,0.40
2023-05-03T00:03:55.804Z,0.53
2023-05-03T00:06:25.712Z,0.40
2023-05-03T00:08:55.328Z,0.40
2023-05-03T00:11:24.899Z,0.50
2023-05-03T00:13:54.359Z,0.43
2023-05-03T00:16:23.894Z,0.47
2023-05-03T00:18:53.399Z,0.43
2023-05-03T00:21:23.249Z,0.47
2023-05-03T00:23:52.799Z,0.43
2023-05-03T00:26:23.095Z,0.50
2023-05-03T00:28:52.588Z,0.47
2023-05-03T00:31:22.123Z,0.70
2023-05-03T00:33:51.652Z,0.50
2023-05-03T00:36:21.137Z,0.47
2023-05-03T00:38:50.665Z,0.40
2023-05-03T00:41:20.627Z,0.60
2023-05-03T00:43:50.073Z,0.50
2023-05-03T00:46:19.643Z,0.43
2023-05-03T00:48:50.726Z,0.40
2023-05-03T00:51:22.592Z,0.27
2023-05-03T00:53:52.715Z,0.33
2023-05-03T00:56:23.608Z,0.40
2023-05-03T00:58:53.943Z,0.30
2023-05-03T01:01:24.266Z,0.20
2023-05-03T01:03:54.179Z,0.40
2023-05-03T01:06:28.414Z,0.30
2023-05-03T01:09:13.199Z,0.50
2023-05-03T01:11:55.312Z,0.47
2023-05-03T01:14:37.977Z,0.40
2023-05-03T01:17:12.058Z,0.40
2023-05-03T01:19:48.871Z,0.40
2023-05-03T01:23:00.584Z,0.40
2023-05-03T01:25:30.065Z,0.30
2023-05-03T01:27:59.804Z,0.40
2023-05-03T01:30:31.983Z,0.37
2023-05-03T01:33:30.245Z,0.40
2023-05-03T01:36:07.673Z,0.20
2023-05-03T01:38:39.121Z,0.40
2023-05-03T01:41:14.968Z,0.30
2023-05-03T01:43:46.783Z,0.40
2023-05-03T01:46:17.114Z,0.20
2023-05-03T01:48:48.242Z,0.40
2023-05-03T01:51:17.752Z,0.37
2023-05-03T01:53:47.278Z,0.40
2023-05-03T01:56:17.181Z,0.40
2023-05-03T01:58:46.639Z,0.50
2023-05-03T02:01:16.161Z,0.30
2023-05-03T02:03:45.680Z,0.40
2023-05-03T02:06:15.224Z,0.30
2023-05-03T02:08:44.732Z,0.30
2023-05-03T02:11:14.220Z,0.40
2023-05-03T02:13:43.688Z,0.20
2023-05-03T02:16:13.238Z,0.43
2023-05-03T02:18:43.291Z,0.30
2023-05-03T02:21:13.225Z,0.40
2023-05-03T02:23:42.698Z,0.30
2023-05-03T02:26:12.184Z,0.30
2023-05-03T02:28:41.668Z,0.20
2023-05-03T02:31:11.164Z,0.27
2023-05-03T02:33:41.259Z,0.30
2023-05-03T02:36:11.024Z,0.20
2023-05-03T02:38:40.498Z,0.20
2023-05-03T02:41:10.488Z,0.30
2023-05-03T02:43:39.964Z,0.30
2023-05-03T02:46:09.534Z,0.37
2023-05-03T02:48:39.002Z,0.17
2023-05-03T02:51:08.472Z,0.20
2023-05-03T02:53:37.963Z,0.40
2023-05-03T02:56:07.766Z,0.30
2023-05-03T02:58:37.241Z,0.30
2023-05-03T03:01:06.887Z,0.30
2023-05-03T03:03:36.615Z,0.33
2023-05-03T03:06:06.820Z,0.20
2023-05-03T03:08:37.564Z,0.30
2023-05-03T03:11:08.559Z,0.40
2023-05-03T03:13:39.848Z,0.30
2023-05-03T03:16:10.685Z,0.30
2023-05-03T03:18:40.151Z,0.30
2023-05-03T03:21:09.779Z,0.28
2023-05-03T03:23:39.268Z,0.30
2023-05-03T03:26:08.759Z,0.30
2023-05-03T03:28:38.221Z,0.33
2023-05-03T03:31:07.783Z,0.30
2023-05-03T03:33:37.264Z,0.33
2023-05-03T03:36:07.818Z,0.30
2023-05-03T03:38:37.350Z,0.40
2023-05-03T03:41:07.204Z,0.30
2023-05-03T03:43:36.690Z,0.57
2023-05-03T03:46:06.470Z,0.37
2023-05-03T03:48:35.940Z,0.40
2023-05-03T03:51:05.477Z,0.30
2023-05-03T03:53:34.949Z,0.30
2023-05-03T03:56:04.441Z,0.30
2023-05-03T03:58:34.264Z,0.40
2023-05-03T04:01:03.752Z,0.40
2023-05-03T04:03:33.509Z,0.30
2023-05-03T04:06:03.069Z,0.40
2023-05-03T04:08:32.572Z,0.30
2023-05-03T04:11:03.789Z,0.47
2023-05-03T04:13:33.246Z,0.30
2023-05-03T04:16:07.154Z,0.40
2023-05-03T04:18:36.987Z,0.37
2023-05-03T04:21:06.686Z,0.53
2023-05-03T04:23:36.255Z,0.30
2023-05-03T04:26:05.889Z,0.50
2023-05-03T04:28:36.743Z,0.50
2023-05-03T04:31:06.418Z,0.50
2023-05-03T04:33:35.961Z,0.40
2023-05-03T04:36:06.245Z,0.40
2023-05-03T04:38:35.674Z,0.40
2023-05-03T04:41:05.159Z,0.40
2023-05-03T04:43:34.726Z,0.47
2023-05-03T04:46:04.980Z,0.50
2023-05-03T04:48:36.257Z,0.70
2023-05-03T04:51:06.512Z,0.60
2023-05-03T04:53:36.000Z,0.70
2023-05-03T04:56:05.813Z,0.73
2023-05-03T04:58:36.657Z,0.43
2023-05-03T05:01:07.316Z,0.37
2023-05-03T05:03:37.005Z,0.50
2023-05-03T05:06:08.377Z,0.50
2023-05-03T05:08:37.889Z,0.40
2023-05-03T05:11:08.185Z,0.60
2023-05-03T05:13:37.670Z,0.60
2023-05-03T05:16:07.460Z,0.40
2023-05-03T05:18:37.022Z,0.60
2023-05-03T05:21:06.616Z,0.80
2023-05-03T05:23:36.277Z,0.90
2023-05-03T05:26:05.760Z,0.73
2023-05-03T05:28:35.233Z,0.70
2023-05-03T05:31:04.827Z,0.70
2023-05-03T05:33:34.566Z,1.20
2023-05-03T05:36:05.070Z,1.27
2023-05-03T05:38:35.257Z,0.70
2023-05-03T05:41:06.000Z,0.88
2023-05-03T05:43:36.193Z,1.13
2023-05-03T05:46:05.844Z,0.87
2023-05-03T05:48:35.547Z,0.80
2023-05-03T05:51:05.243Z,0.73
2023-05-03T05:53:34.890Z,1.10
2023-05-03T05:56:06.081Z,0.77
2023-05-03T05:58:37.304Z,1.03
2023-05-03T06:01:07.181Z,0.90
2023-05-03T06:03:36.697Z,0.97
2023-05-03T06:06:06.264Z,0.93
2023-05-03T06:08:36.263Z,0.90
2023-05-03T06:11:05.821Z,0.70
2023-05-03T06:13:36.947Z,0.70
2023-05-03T06:16:07.206Z,0.87
2023-05-03T06:18:36.683Z,0.83
2023-05-03T06:21:06.300Z,1.00
2023-05-03T06:23:37.534Z,0.90
2023-05-03T06:26:07.255Z,1.00
2023-05-03T06:28:37.438Z,1.27
2023-05-03T06:31:07.013Z,0.90
2023-05-03T06:33:36.566Z,0.70
2023-05-03T06:36:06.813Z,0.90
2023-05-03T06:38:36.640Z,0.73
2023-05-03T06:41:06.135Z,0.70
2023-05-03T06:43:35.915Z,0.87
2023-05-03T06:46:05.407Z,0.83
2023-05-03T06:48:34.903Z,0.70
2023-05-03T06:51:05.074Z,0.57
2023-05-03T06:53:34.561Z,0.70
2023-05-03T06:56:05.364Z,0.80
2023-05-03T06:58:34.868Z,0.80
2023-05-03T07:01:04.334Z,0.90
2023-05-03T07:03:33.992Z,0.90
2023-05-03T07:06:04.162Z,0.60
2023-05-03T07:08:33.762Z,0.80
2023-05-03T07:11:04.203Z,0.70
2023-05-03T07:13:33.683Z,0.73
2023-05-03T07:16:03.801Z,0.87
2023-05-03T07:18:33.432Z,0.57
2023-05-03T07:21:04.542Z,1.10
2023-05-03T07:23:34.195Z,1.17
2023-05-03T07:26:03.929Z,0.80
2023-05-03T07:28:33.411Z,0.90
2023-05-03T07:31:07.799Z,1.10
2023-05-03T07:33:37.903Z,0.80
2023-05-03T07:36:08.173Z,0.90
2023-05-03T07:38:37.696Z,0.70
2023-05-03T07:41:07.232Z,0.70
2023-05-03T07:43:36.754Z,0.80
2023-05-03T07:46:06.250Z,0.93
2023-05-03T07:48:35.705Z,1.13
2023-05-03T07:51:07.005Z,1.17
2023-05-03T07:53:36.598Z,1.10
2023-05-03T07:56:06.297Z,0.83
2023-05-03T07:58:40.650Z,0.97
2023-05-03T08:01:07.259Z,0.90
2023-05-03T08:03:37.459Z,0.60
2023-05-03T08:06:07.183Z,0.70
2023-05-03T08:08:36.671Z,0.70
2023-05-03T08:11:06.200Z,0.97
2023-05-03T08:13:36.159Z,0.80
2023-05-03T08:16:06.632Z,0.57
2023-05-03T08:18:36.157Z,0.80
2023-05-03T08:21:06.375Z,0.80
2023-05-03T08:23:36.742Z,0.67
2023-05-03T08:26:08.692Z,0.70
2023-05-03T08:28:38.170Z,0.60
2023-05-03T08:31:07.779Z,0.90
2023-05-03T08:33:37.832Z,1.00
2023-05-03T08:36:07.739Z,0.87
2023-05-03T08:38:38.855Z,0.80
2023-05-03T08:41:15.679Z,0.60
2023-05-03T08:43:47.350Z,0.60
2023-05-03T08:46:16.997Z,0.70
2023-05-03T08:48:52.738Z,0.53
2023-05-03T08:51:25.350Z,0.40
2023-05-03T08:53:55.578Z,0.60
2023-05-03T08:56:32.823Z,0.40
2023-05-03T08:59:04.609Z,0.70
2023-05-03T09:01:35.110Z,0.50
2023-05-03T09:04:04.921Z,0.77
2023-05-03T09:06:35.562Z,0.60
2023-05-03T09:09:08.961Z,0.50
2023-05-03T09:11:40.652Z,0.90
2023-05-03T09:14:14.577Z,0.63
2023-05-03T09:16:46.646Z,0.83
2023-05-03T09:19:17.521Z,0.60
2023-05-03T09:21:48.450Z,0.70
2023-05-03T09:24:20.728Z,0.90
2023-05-03T09:26:54.112Z,0.40
2023-05-03T09:29:32.183Z,0.67
2023-05-03T09:32:07.574Z,0.50
2023-05-03T09:34:37.592Z,0.60
2023-05-03T09:37:07.738Z,0.80
2023-05-03T09:39:37.684Z,0.80
2023-05-03T09:42:16.926Z,0.60
2023-05-03T09:44:51.417Z,0.70
2023-05-03T09:47:21.733Z,1.10
2023-05-03T09:49:51.226Z,0.67
2023-05-03T09:52:23.622Z,0.40
2023-05-03T09:54:55.820Z,0.70
2023-05-03T09:57:25.914Z,0.80
2023-05-03T09:59:55.855Z,0.60
2023-05-03T10:02:26.165Z,0.70
2023-05-03T10:04:57.863Z,0.80
2023-05-03T10:07:30.079Z,0.70
2023-05-03T10:09:59.841Z,0.57
2023-05-03T10:12:30.421Z,0.60
2023-05-03T10:15:03.439Z,0.40
2023-05-03T10:17:47.643Z,0.73
2023-05-03T10:20:31.381Z,0.67
2023-05-03T10:23:12.362Z,0.70
2023-05-03T10:26:02.040Z,0.80
2023-05-03T10:28:33.466Z,0.60
2023-05-03T10:31:04.164Z,0.57
2023-05-03T10:33:37.295Z,0.50
2023-05-03T10:36:13.210Z,0.60
2023-05-03T10:38:44.797Z,0.60
2023-05-03T10:41:15.450Z,0.60
2023-05-03T10:43:46.158Z,0.60
2023-05-03T10:46:33.245Z,0.70
2023-05-03T10:49:24.521Z,0.60
2023-05-03T10:51:54.169Z,0.80
2023-05-03T10:54:24.136Z,0.90
2023-05-03T10:56:56.550Z,0.70
2023-05-03T10:59:27.151Z,0.80
2023-05-03T11:01:57.481Z,0.77
2023-05-03T11:04:34.664Z,0.60
2023-05-03T11:07:04.631Z,0.60
2023-05-03T11:09:35.951Z,0.60
2023-05-03T11:12:09.215Z,0.40
2023-05-03T11:14:40.076Z,0.70
2023-05-03T11:17:09.900Z,0.40
2023-05-03T11:19:40.163Z,1.27
2023-05-03T11:22:10.065Z,1.20
2023-05-03T11:24:39.561Z,0.80
2023-05-03T11:27:10.592Z,1.20
2023-05-03T11:29:41.041Z,1.10
2023-05-03T11:32:10.917Z,1.00
2023-05-03T11:34:40.625Z,0.83
2023-05-03T11:37:11.086Z,1.10
2023-05-03T11:39:40.573Z,0.90
2023-05-03T11:42:10.119Z,0.90
2023-05-03T11:44:39.655Z,0.90
2023-05-03T11:47:09.638Z,0.80
2023-05-03T11:49:39.315Z,0.70
2023-05-03T11:52:09.406Z,1.00
2023-05-03T11:54:38.887Z,0.70
2023-05-03T11:57:14.985Z,0.40
2023-05-03T11:59:45.627Z,0.70
2023-05-03T12:02:17.395Z,0.50
2023-05-03T12:04:47.629Z,0.30
2023-05-03T12:07:21.004Z,0.70
2023-05-03T12:10:05.787Z,0.40
2023-05-03T12:12:26.694Z,0.60
2023-05-03T12:14:59.876Z,0.90
2023-05-03T12:17:43.622Z,0.97
2023-05-03T12:22:58.861Z,0.90
2023-05-03T12:25:34.839Z,0.93
2023-05-03T12:30:40.567Z,0.70
2023-05-03T12:33:11.227Z,0.50
2023-05-03T12:35:41.951Z,0.90
2023-05-03T12:38:15.879Z,0.70
2023-05-03T12:40:45.367Z,0.70
2023-05-03T12:43:15.991Z,0.80
2023-05-03T12:45:52.333Z,0.57
2023-05-03T12:48:17.211Z,0.60
2023-05-03T12:50:49.206Z,0.40
2023-05-03T12:53:18.292Z,0.57
2023-05-03T12:55:51.740Z,0.80
2023-05-03T13:01:37.155Z,0.60
2023-05-03T13:03:23.752Z,0.60
2023-05-03T13:05:54.980Z,0.60
2023-05-03T13:08:33.014Z,0.37
2023-05-03T13:10:56.151Z,1.00
2023-05-03T13:13:26.093Z,1.07
2023-05-03T13:15:55.782Z,0.90
2023-05-03T13:18:25.878Z,0.90
2023-05-03T13:20:55.436Z,0.80
2023-05-03T13:23:24.898Z,0.57
2023-05-03T13:25:56.020Z,0.80
2023-05-03T13:28:26.256Z,0.90
2023-05-03T13:30:56.036Z,0.70
2023-05-03T13:33:26.059Z,0.50
2023-05-03T13:35:55.660Z,0.50
2023-05-03T13:38:25.113Z,0.60
2023-05-03T13:40:54.874Z,0.50
2023-05-03T13:43:24.497Z,0.60
2023-05-03T13:45:55.547Z,0.40
2023-05-03T13:48:25.101Z,0.47
2023-05-03T13:50:54.634Z,0.40
2023-05-03T13:53:24.120Z,0.40
2023-05-03T13:55:53.619Z,0.60
2023-05-03T13:58:23.093Z,0.53
2023-05-03T14:00:52.645Z,0.50
2023-05-03T14:03:22.545Z,0.70
2023-05-03T14:05:52.226Z,0.93
2023-05-03T14:08:21.738Z,0.63
2023-05-03T14:10:51.645Z,0.67
2023-05-03T14:13:22.205Z,0.90
2023-05-03T14:15:51.925Z,0.67
2023-05-03T14:18:22.780Z,0.60
2023-05-03T14:20:52.592Z,0.70
2023-05-03T14:23:22.111Z,0.90
2023-05-03T14:25:52.227Z,0.60
2023-05-03T14:28:21.918Z,0.60
2023-05-03T14:30:51.675Z,0.50
2023-05-03T14:33:21.245Z,0.63
2023-05-03T14:35:50.742Z,0.80
2023-05-03T14:38:20.281Z,0.43
2023-05-03T14:40:50.714Z,0.80
2023-05-03T14:43:20.797Z,0.50
2023-05-03T14:45:50.316Z,0.60
2023-05-03T14:48:20.459Z,0.50
2023-05-03T14:50:51.705Z,0.60
2023-05-03T14:53:22.480Z,0.40
2023-05-03T14:55:53.746Z,0.40
2023-05-03T14:58:23.204Z,0.30
2023-05-03T15:00:52.711Z,0.40
2023-05-03T15:03:22.221Z,0.40
2023-05-03T15:05:52.268Z,0.40
2023-05-03T15:08:22.302Z,0.40
2023-05-03T15:10:52.475Z,0.50
2023-05-03T15:13:22.223Z,0.50
2023-05-03T15:15:52.088Z,0.40
2023-05-03T15:18:22.267Z,0.57
2023-05-03T15:20:51.727Z,0.90
2023-05-03T15:23:21.222Z,0.70
2023-05-03T15:25:50.971Z,0.50
2023-05-03T15:28:21.135Z,0.53
2023-05-03T15:30:50.824Z,0.30
2023-05-03T15:33:20.656Z,0.60
2023-05-03T15:35:50.135Z,0.60
2023-05-03T15:38:19.624Z,0.70
2023-05-03T15:40:49.464Z,0.40
2023-05-03T15:43:18.998Z,0.50
2023-05-03T15:45:48.898Z,0.70
2023-05-03T15:48:18.750Z,0.70
2023-05-03T15:50:48.292Z,0.60
2023-05-03T15:53:17.768Z,0.50
2023-05-03T15:55:47.254Z,0.50
2023-05-03T15:58:18.417Z,0.43
2023-05-03T16:00:48.576Z,0.35
2023-05-03T16:03:18.067Z,0.63
2023-05-03T16:05:47.830Z,0.43
2023-05-03T16:08:17.385Z,0.53
2023-05-03T16:10:46.868Z,0.57
2023-05-03T16:13:16.752Z,0.40
2023-05-03T16:15:46.325Z,0.40
2023-05-03T16:18:15.879Z,0.70
2023-05-03T16:20:45.829Z,0.30
2023-05-03T16:23:15.328Z,0.63
2023-05-03T16:25:44.805Z,0.70
2023-05-03T16:28:14.359Z,0.43
2023-05-03T16:30:43.843Z,0.50
2023-05-03T16:33:13.413Z,0.77
2023-05-03T16:35:42.884Z,0.70
2023-05-03T16:38:12.388Z,0.63
2023-05-03T16:40:42.542Z,0.30
2023-05-03T16:43:12.007Z,0.50
2023-05-03T16:45:41.972Z,0.57
2023-05-03T16:48:12.962Z,0.47
2023-05-03T16:50:44.479Z,0.77
2023-05-03T16:53:14.218Z,0.70
2023-05-03T16:55:43.785Z,0.40
2023-05-03T16:58:13.347Z,0.40
2023-05-03T17:00:42.831Z,0.37
2023-05-03T17:03:13.691Z,0.33
2023-05-03T17:05:43.178Z,0.37
2023-05-03T17:08:13.656Z,0.47
2023-05-03T17:10:44.661Z,0.30
2023-05-03T17:13:14.974Z,0.33
2023-05-03T17:15:44.756Z,0.40
2023-05-03T17:18:35.232Z,0.40
2023-05-03T17:21:05.696Z,0.37
2023-05-03T17:23:39.571Z,0.30
2023-05-03T17:26:12.957Z,0.30
2023-05-03T17:28:44.194Z,0.40
2023-05-03T17:31:13.724Z,0.23
2023-05-03T17:33:43.235Z,0.30
2023-05-03T17:36:12.797Z,0.40
2023-05-03T17:38:42.287Z,0.37
2023-05-03T17:41:12.416Z,0.37
2023-05-03T17:43:42.567Z,0.40
2023-05-03T17:46:15.006Z,0.30
2023-05-03T17:48:46.622Z,0.30
2023-05-03T17:51:16.243Z,0.20
2023-05-03T17:53:45.718Z,0.30
2023-05-03T17:56:19.993Z,0.33
2023-05-03T17:58:49.461Z,0.20
2023-05-03T18:01:19.054Z,0.30
2023-05-03T18:03:48.636Z,0.40
2023-05-03T18:06:18.150Z,0.20
2023-05-03T18:08:47.629Z,0.40
2023-05-03T18:11:17.289Z,0.50
2023-05-03T18:13:46.805Z,0.70
2023-05-03T18:16:16.851Z,0.50
2023-05-03T18:18:46.388Z,0.40
2023-05-03T18:21:16.447Z,0.20
2023-05-03T18:23:46.116Z,0.47
2023-05-03T18:26:15.673Z,0.43
2023-05-03T18:28:45.149Z,0.50
2023-05-03T18:31:14.731Z,0.30
2023-05-03T18:33:44.192Z,0.37
2023-05-03T18:36:15.479Z,0.40
2023-05-03T18:38:46.630Z,0.40
2023-05-03T18:41:16.850Z,0.50
2023-05-03T18:43:47.855Z,0.40
2023-05-03T18:46:21.170Z,0.47
2023-05-03T18:48:50.698Z,0.50
2023-05-03T18:51:20.353Z,0.67
2023-05-03T18:53:49.893Z,0.80
2023-05-03T18:56:19.391Z,1.00
2023-05-03T18:58:51.621Z,1.30
2023-05-03T19:01:21.133Z,1.27
2023-05-03T19:03:51.025Z,1.10
2023-05-03T19:06:20.574Z,1.10
2023-05-03T19:08:50.083Z,0.90
2023-05-03T19:11:19.572Z,0.50
2023-05-03T19:13:49.049Z,0.60
2023-05-03T19:16:18.680Z,0.60
2023-05-03T19:18:48.191Z,0.67
2023-05-03T19:21:17.678Z,0.73
2023-05-03T19:23:47.167Z,0.50
2023-05-03T19:26:16.699Z,0.60
2023-05-03T19:28:47.174Z,0.50
2023-05-03T19:31:17.730Z,0.70
2023-05-03T19:33:47.370Z,0.77
2023-05-03T19:36:16.883Z,0.60
2023-05-03T19:38:46.385Z,0.60
2023-05-03T19:41:15.888Z,0.60
2023-05-03T19:43:45.432Z,0.40
2023-05-03T19:46:16.783Z,0.60
2023-05-03T19:48:46.357Z,0.50
2023-05-03T19:51:17.579Z,0.40
2023-05-03T19:53:48.948Z,0.70
2023-05-03T19:56:19.569Z,0.60
2023-05-03T19:58:50.673Z,0.70
2023-05-03T20:01:20.791Z,1.07
2023-05-03T20:03:52.071Z,1.10
2023-05-03T20:06:22.337Z,1.00
2023-05-03T20:08:51.956Z,1.00
2023-05-03T20:11:21.614Z,0.73
2023-05-03T20:13:51.386Z,0.87
2023-05-03T20:16:21.948Z,0.77
2023-05-03T20:18:51.541Z,1.07
2023-05-03T20:21:21.063Z,0.50
2023-05-03T20:23:51.182Z,0.50
2023-05-03T20:26:21.779Z,0.50
2023-05-03T20:28:51.455Z,0.60
2023-05-03T20:31:21.540Z,0.60
2023-05-03T20:33:51.179Z,0.50
2023-05-03T20:36:20.688Z,0.50
2023-05-03T20:38:50.878Z,0.53
2023-05-03T20:41:20.446Z,0.50
2023-05-03T20:43:50.686Z,0.53
2023-05-03T20:46:20.437Z,0.40
2023-05-03T20:48:49.997Z,0.40
2023-05-03T20:51:19.512Z,0.40
2023-05-03T20:53:49.054Z,0.50
2023-05-03T20:56:18.618Z,0.70
2023-05-03T20:58:48.148Z,0.60
2023-05-03T21:01:18.484Z,0.80
2023-05-03T21:03:48.509Z,0.60
2023-05-03T21:06:18.036Z,0.40
2023-05-03T21:08:47.913Z,0.40
2023-05-03T21:11:17.498Z,0.40
2023-05-03T21:13:47.023Z,0.40
2023-05-03T21:16:16.630Z,0.30
2023-05-03T21:18:46.255Z,0.40
2023-05-03T21:21:15.767Z,0.60
2023-05-03T21:23:46.317Z,0.30
2023-05-03T21:26:16.706Z,0.50
2023-05-03T21:28:46.255Z,0.50
2023-05-03T21:31:15.835Z,0.40
2023-05-03T21:33:45.418Z,0.37
2023-05-03T21:36:15.294Z,0.60
2023-05-03T21:38:45.390Z,0.40
2023-05-03T21:41:14.901Z,0.40
2023-05-03T21:43:44.479Z,0.40
2023-05-03T21:46:14.164Z,0.40
2023-05-03T21:48:43.735Z,0.50
2023-05-03T21:51:24.935Z,0.33
2023-05-03T21:53:54.540Z,0.50
2023-05-03T21:56:24.048Z,0.40
2023-05-03T21:58:53.586Z,0.50
2023-05-03T22:01:23.155Z,0.40
2023-05-03T22:03:53.245Z,0.50
2023-05-03T22:06:23.042Z,0.50
2023-05-03T22:08:52.883Z,0.67
2023-05-03T22:11:22.741Z,0.47
2023-05-03T22:14:06.575Z,0.70
2023-05-03T22:16:24.473Z,0.60
2023-05-03T22:18:53.955Z,0.57
2023-05-03T22:21:23.500Z,0.30
2023-05-03T22:23:53.046Z,0.50
2023-05-03T22:26:22.600Z,0.40
2023-05-03T22:28:52.143Z,0.47
2023-05-03T22:31:21.889Z,0.40
2023-05-03T22:33:51.456Z,0.50
2023-05-03T22:36:20.998Z,0.27
2023-05-03T22:38:50.614Z,0.40
2023-05-03T22:41:20.838Z,0.40
2023-05-03T22:43:50.379Z,0.40
2023-05-03T22:46:20.101Z,0.33
2023-05-03T22:48:49.613Z,0.30
2023-05-03T22:51:19.327Z,0.40
2023-05-03T22:53:48.874Z,0.40
2023-05-03T22:56:18.448Z,0.30
2023-05-03T22:58:49.020Z,0.30
2023-05-03T23:01:18.617Z,0.20
2023-05-03T23:03:48.274Z,0.30
2023-05-03T23:06:17.961Z,0.30
2023-05-03T23:08:47.510Z,0.40
2023-05-03T23:11:17.086Z,0.40
2023-05-03T23:13:46.602Z,0.40
2023-05-03T23:16:17.693Z,0.27
2023-05-03T23:18:47.285Z,0.30
2023-05-03T23:21:16.790Z,0.40
2023-05-03T23:23:46.959Z,0.43
2023-05-03T23:26:16.481Z,0.30
2023-05-03T23:28:46.828Z,0.47
2023-05-03T23:31:16.866Z,0.40
2023-05-03T23:33:46.663Z,0.30
2023-05-03T23:36:16.354Z,0.47
2023-05-03T23:38:46.128Z,0.40
2023-05-03T23:41:15.713Z,0.40
2023-05-03T23:43:45.218Z,0.47
2023-05-03T23:46:14.900Z,0.40
2023-05-03T23:48:44.873Z,0.30
2023-05-03T23:51:14.424Z,0.43
2023-05-03T23:53:43.956Z,0.43
2023-05-03T23:56:13.652Z,0.40
2023-05-03T23:58:43.168Z,0.40
